Saga III — VJN4194 — position and weather

sailwx.info

Track history (hours):
 
Tides and Currents Weather Stations Pressure Air Temp Water Temp Dewpoint Dewpoint Depression Visibility Wind Speed Wind Dir Waves Ship Positions

Saga III

Last reported at 2018-May-12 23:40 UTC. Time now 2018-Aug-16 20:17 UTC.
Position S 27°45' E 153°30'.
Warning: this ship's position is months out of date.

Length 14 m.

Type: Sailing vessel. MMSI: 503759800.

Date/timePositionNaut miles runAvg speedWind from/ knotsBaromVisibWave heightAir tempDewpointWater temp
2018-May-12 23:40S 27°45' E 153°30'1 7.9
2018-May-12 23:30S 27°46' E 153°30'4 7.8
2018-May-12 23:00S 27°50' E 153°28'3 5.8
2018-May-12 22:30S 27°53' E 153°27'4 0.3
2018-May-12 10:47S 27°56' E 153°25'6 1.8
2018-May-12 07:36S 28°01' E 153°29'1 6.1
2018-May-12 07:30S 28°01' E 153°29'3 6.6
2018-May-12 06:59S 28°04' E 153°30'3 6.1
2018-May-12 06:29S 28°07' E 153°32'3 6.0
2018-May-12 06:00S 28°10' E 153°34'3 5.0
2018-May-12 05:30S 28°12' E 153°35'3 5.5
2018-May-12 05:00S 28°15' E 153°36'  
Track history (hours):
 
Tides and Currents Weather Stations Pressure Air Temp Water Temp Dewpoint Dewpoint Depression Visibility Wind Speed Wind Dir Waves Ship Positions

Saga III

Last reported at 2018-May-12 23:40 UTC. Time now 2018-Aug-16 20:17 UTC.
Position S 27°45' E 153°30'.
Warning: this ship's position is months out of date.

Length 14 m.

Type: Sailing vessel. MMSI: 503759800.

Date/timePositionNaut miles runAvg speedWind from/ knotsBaromVisibWave heightAir tempDewpointWater temp
2018-May-12 23:40S 27°45' E 153°30'1 7.9
2018-May-12 23:30S 27°46' E 153°30'4 7.8
2018-May-12 23:00S 27°50' E 153°28'3 5.8
2018-May-12 22:30S 27°53' E 153°27'4 0.3
2018-May-12 10:47S 27°56' E 153°25'6 1.8
2018-May-12 07:36S 28°01' E 153°29'1 6.1
2018-May-12 07:30S 28°01' E 153°29'3 6.6
2018-May-12 06:59S 28°04' E 153°30'3 6.1
2018-May-12 06:29S 28°07' E 153°32'3 6.0
2018-May-12 06:00S 28°10' E 153°34'3 5.0
2018-May-12 05:30S 28°12' E 153°35'3 5.5
2018-May-12 05:00S 28°15' E 153°36'  

Dump ship's entire track history